Time;durP1;ratioP1;P1;durP2;ratioP2;P2;SDS_P1;SDS_P2;PMS_P1;PMS_P2;Temp;Humidity;BMP_temperature;BMP_pressure;BME280_temperature;BME280_humidity;BME280_pressure;Samples;Min_cycle;Max_cycle;Signal;HPM_P1;HPM_P2
2022/04/25 00:02:12;;;;;;;188.13;47.67;;;;;;;-139.48;100.00;61774.03;5013188;28;20414;-70
2022/04/25 00:04:56;;;;;;;197.23;49.10;;;;;;;-139.48;100.00;61774.03;4998377;28;20422;-70
2022/04/25 00:07:40;;;;;;;199.80;48.15;;;;;;;-139.48;100.00;61774.03;5013211;28;20629;-69
2022/04/25 00:10:24;;;;;;;155.73;42.60;;;;;;;-139.48;100.00;61774.03;5013124;28;20049;-69
2022/04/25 00:13:08;;;;;;;185.93;47.40;;;;;;;-139.48;100.00;61774.03;4998304;28;20096;-69
2022/04/25 00:15:55;;;;;;;159.13;41.45;;;;;;;-139.48;100.00;61774.03;4987593;28;20048;-70
2022/04/25 00:18:39;;;;;;;178.15;44.10;;;;;;;-139.48;100.00;61774.03;5002704;28;20057;-69
2022/04/25 00:21:23;;;;;;;162.63;42.28;;;;;;;-139.48;100.00;61774.03;5001948;28;20480;-70
2022/04/25 00:24:07;;;;;;;239.57;49.10;;;;;;;-139.48;100.00;61774.03;5017362;28;20053;-69
2022/04/25 00:26:51;;;;;;;237.32;49.65;;;;;;;-139.48;100.00;61774.03;5001890;28;20410;-69
2022/04/25 00:29:35;;;;;;;161.25;44.53;;;;;;;-139.48;100.00;61774.03;5002008;28;20124;-69
2022/04/25 00:32:19;;;;;;;198.60;45.85;;;;;;;-139.48;100.00;61774.03;5016642;28;20096;-69
2022/04/25 00:35:04;;;;;;;144.55;41.97;;;;;;;-139.48;100.00;61774.03;5002002;28;20057;-69
2022/04/25 00:37:48;;;;;;;184.23;45.35;;;;;;;-139.48;100.00;61774.03;5017105;28;20053;-70
2022/04/25 00:40:32;;;;;;;172.43;45.03;;;;;;;-139.48;100.00;61774.03;4987712;28;20121;-70
2022/04/25 00:43:16;;;;;;;148.00;42.38;;;;;;;-139.48;100.00;61774.03;5001933;28;20562;-70
2022/04/25 00:46:00;;;;;;;202.85;46.83;;;;;;;-139.48;100.00;61774.03;5016743;28;20100;-69
2022/04/25 00:48:44;;;;;;;185.10;45.38;;;;;;;-139.48;100.00;61774.03;5001740;28;20088;-70
2022/04/25 00:51:28;;;;;;;136.20;37.28;;;;;;;-139.48;100.00;61774.03;5001407;28;20536;-69
2022/04/25 00:54:12;;;;;;;134.77;38.88;;;;;;;-139.48;100.00;61774.03;5001702;28;20048;-70
2022/04/25 00:56:56;;;;;;;152.95;41.92;;;;;;;-139.48;100.00;61774.03;5001651;28;20107;-69
2022/04/25 00:59:40;;;;;;;;;;;;;;;-139.48;100.00;61774.03;5001733;28;20077;-69
2022/04/25 01:02:26;;;;;;;183.67;41.23;;;;;;;-139.48;100.00;61774.03;5001552;28;19920;-70
2022/04/25 01:05:10;;;;;;;160.40;43.30;;;;;;;-139.48;100.00;61774.03;4987574;28;20099;-70
2022/04/25 01:07:54;;;;;;;172.27;41.13;;;;;;;-139.48;100.00;61774.03;5001236;28;20045;-69
2022/04/25 01:10:38;;;;;;;153.07;39.17;;;;;;;-139.48;100.00;61774.03;5001301;28;20099;-69
2022/04/25 01:13:21;;;;;;;145.00;41.58;;;;;;;-139.48;100.00;61774.03;5001060;28;20099;-70
2022/04/25 01:16:05;;;;;;;109.72;37.33;;;;;;;-139.48;100.00;61774.03;5015921;28;20057;-70
2022/04/25 01:18:49;;;;;;;117.68;36.25;;;;;;;-139.48;100.00;61774.03;5001144;28;20100;-69
2022/04/25 01:21:41;;;;;;;141.88;38.58;;;;;;;-139.48;100.00;61774.03;5001125;28;20129;-69
2022/04/25 01:27:28;;;;;;;126.22;37.65;;;;;;;-139.48;100.00;61774.03;5002690;28;20096;-70
2022/04/25 01:30:12;;;;;;;114.55;34.38;;;;;;;-139.48;100.00;61774.03;5015767;28;20061;-70
2022/04/25 01:32:56;;;;;;;113.00;35.63;;;;;;;-139.48;100.00;61774.03;5015830;28;20200;-69
2022/04/25 01:35:40;;;;;;;113.85;33.35;;;;;;;-139.48;100.00;61774.03;5000945;28;20505;-69
2022/04/25 01:38:24;;;;;;;98.15;33.40;;;;;;;-139.48;100.00;61774.03;4986744;28;20052;-69
2022/04/25 01:41:08;;;;;;;105.38;34.50;;;;;;;-139.48;100.00;61774.03;5001602;28;20092;-69
2022/04/25 01:43:52;;;;;;;106.07;36.20;;;;;;;-139.48;100.00;61774.03;5001054;28;20511;-69
2022/04/25 01:46:39;;;;;;;83.38;31.85;;;;;;;-139.48;100.00;61774.03;4986986;28;20211;-70
2022/04/25 01:49:23;;;;;;;108.57;34.05;;;;;;;-139.48;100.00;61774.03;5000774;28;20442;-70
2022/04/25 01:52:21;;;;;;;120.35;38.22;;;;;;;-139.48;100.00;61774.03;5000534;28;20053;-70
2022/04/25 01:55:05;;;;;;;105.00;35.45;;;;;;;-139.48;100.00;61774.03;5000255;28;20092;-70
2022/04/25 01:57:48;;;;;;;123.88;36.88;;;;;;;-139.48;100.00;61774.03;5015403;28;20096;-69
2022/04/25 02:00:33;;;;;;;101.38;31.92;;;;;;;-139.48;100.00;61774.03;5015241;28;20045;-69
2022/04/25 02:03:17;;;;;;;92.57;35.00;;;;;;;-139.48;100.00;61774.03;5014967;28;20146;-69
2022/04/25 02:06:01;;;;;;;115.68;38.67;;;;;;;-139.48;100.00;61774.03;5000136;28;20107;-69
2022/04/25 02:08:46;;;;;;;120.32;38.45;;;;;;;-139.48;100.00;61774.03;5000103;28;20125;-70
2022/04/25 02:11:31;;;;;;;144.10;41.97;;;;;;;-139.48;100.00;61774.03;5000031;28;20055;-70
2022/04/25 02:14:15;;;;;;;154.55;40.10;;;;;;;-139.48;100.00;61774.03;4999960;28;20049;-69
2022/04/25 02:16:59;;;;;;;156.65;42.33;;;;;;;-139.48;100.00;61774.03;5015020;28;20051;-69
2022/04/25 02:19:44;;;;;;;387.10;57.42;;;;;;;-139.48;100.00;61774.03;5000127;28;20517;-69
2022/04/25 02:22:28;;;;;;;400.42;62.17;;;;;;;-139.48;100.00;61774.03;5000130;28;20125;-69
2022/04/25 02:25:12;;;;;;;323.95;57.15;;;;;;;-139.48;100.00;61774.03;4999816;28;20155;-69
2022/04/25 02:27:56;;;;;;;263.95;51.95;;;;;;;-139.48;100.00;61774.03;5000015;28;20129;-69
2022/04/25 02:30:40;;;;;;;262.88;53.28;;;;;;;-139.48;100.00;61774.03;4999997;28;20049;-69
2022/04/25 02:33:24;;;;;;;266.17;55.97;;;;;;;-139.48;100.00;61774.03;4999861;28;20052;-69
2022/04/25 02:36:08;;;;;;;215.52;51.63;;;;;;;-139.48;100.00;61774.03;4999822;28;20402;-69
2022/04/25 02:38:52;;;;;;;365.67;61.13;;;;;;;-139.48;100.00;61774.03;4999738;28;20147;-69
2022/04/25 02:41:36;;;;;;;296.90;56.63;;;;;;;-139.48;100.00;61774.03;5014116;28;20057;-69
2022/04/25 02:44:20;;;;;;;296.05;59.30;;;;;;;-139.48;100.00;61774.03;4999681;28;20107;-69
2022/04/25 02:47:04;;;;;;;235.60;57.75;;;;;;;-139.48;100.00;61774.03;4999620;28;20096;-69
2022/04/25 02:49:48;;;;;;;207.10;56.85;;;;;;;-139.48;100.00;61774.03;4999653;28;20519;-69
2022/04/25 02:52:32;;;;;;;215.88;56.10;;;;;;;-139.48;100.00;61774.03;4999354;28;20048;-69
2022/04/25 02:55:16;;;;;;;218.85;58.80;;;;;;;-139.48;100.00;61774.03;5014461;28;20068;-69
2022/04/25 02:58:00;;;;;;;215.90;61.03;;;;;;;-139.48;100.00;61774.03;4999696;28;20049;-69
2022/04/25 03:00:46;;;;;;;242.65;63.60;;;;;;;-139.48;100.00;61774.03;4999481;28;20049;-69
2022/04/25 03:03:31;;;;;;;246.43;61.50;;;;;;;-139.48;100.00;61774.03;4999628;28;20045;-69
2022/04/25 03:06:15;;;;;;;249.05;62.80;;;;;;;-139.48;100.00;61774.03;4999564;28;20580;-69
2022/04/25 03:08:59;;;;;;;295.77;64.70;;;;;;;-139.48;100.00;61774.03;4985326;28;20077;-69
2022/04/25 03:11:43;;;;;;;301.20;65.18;;;;;;;-139.48;100.00;61774.03;5014144;28;20189;-69
2022/04/25 03:14:27;;;;;;;253.40;65.70;;;;;;;-139.48;100.00;61774.03;4999457;28;20061;-69
2022/04/25 03:17:12;;;;;;;277.67;65.88;;;;;;;-139.48;100.00;61774.03;5013770;28;20049;-69
2022/04/25 03:19:55;;;;;;;265.13;67.75;;;;;;;-139.48;100.00;61774.03;4999007;28;20048;-69
2022/04/25 03:22:39;;;;;;;323.30;65.97;;;;;;;-139.48;100.00;61774.03;5013986;28;20061;-70
2022/04/25 03:25:23;;;;;;;263.77;64.78;;;;;;;-139.48;100.00;61774.03;5013937;28;20044;-69
2022/04/25 03:28:07;;;;;;;288.60;64.78;;;;;;;-139.48;100.00;61774.03;4985311;28;20188;-70
2022/04/25 03:30:51;;;;;;;264.58;66.18;;;;;;;-139.48;100.00;61774.03;4998882;28;20057;-70
2022/04/25 03:33:36;;;;;;;281.20;65.47;;;;;;;-139.48;100.00;61774.03;4998986;28;20516;-69
2022/04/25 03:36:20;;;;;;;307.85;65.35;;;;;;;-139.48;100.00;61774.03;4998976;28;20052;-69
2022/04/25 03:39:04;;;;;;;269.13;64.18;;;;;;;-139.48;100.00;61774.03;4998939;28;20060;-70
2022/04/25 03:41:48;;;;;;;295.33;63.95;;;;;;;-139.48;100.00;61774.03;4998412;28;20048;-70
2022/04/25 03:44:32;;;;;;;261.25;62.00;;;;;;;-139.48;100.00;61774.03;4985199;28;20103;-69
2022/04/25 03:47:16;;;;;;;261.58;60.85;;;;;;;-139.48;100.00;61774.03;5013496;28;20104;-69
2022/04/25 03:50:00;;;;;;;288.13;62.75;;;;;;;-139.48;100.00;61774.03;4986594;28;20041;-70
2022/04/25 03:52:45;;;;;;;283.55;64.47;;;;;;;-139.48;100.00;61774.03;5002875;28;20103;-70
2022/04/25 03:58:45;;;;;;;235.90;57.60;;;;;;;-139.48;100.00;61774.03;5000175;28;20052;-69
2022/04/25 04:01:31;;;;;;;;;;;;;;;-139.48;100.00;61774.03;5017905;28;20049;-69
2022/04/25 04:04:15;;;;;;;207.63;52.80;;;;;;;-139.48;100.00;61774.03;5002982;28;19959;-69
2022/04/25 04:06:59;;;;;;;248.75;53.50;;;;;;;-139.48;100.00;61774.03;5017479;28;20449;-69
2022/04/25 04:09:46;;;;;;;218.02;53.72;;;;;;;-139.48;100.00;61774.03;5002543;28;20437;-69
2022/04/25 04:12:36;;;;;;;212.65;50.88;;;;;;;-139.48;100.00;61774.03;5017093;28;20057;-69
2022/04/25 04:15:20;;;;;;;212.98;49.20;;;;;;;-139.48;100.00;61774.03;5003210;28;20084;-69
2022/04/25 04:18:07;;;;;;;188.55;45.55;;;;;;;-139.48;100.00;61774.03;4988866;28;20397;-69
2022/04/25 04:20:51;;;;;;;178.88;47.65;;;;;;;-139.48;100.00;61774.03;4988615;28;20112;-70
2022/04/25 04:23:35;;;;;;;194.90;45.58;;;;;;;-139.48;100.00;61774.03;5002017;28;20052;-70
2022/04/25 04:26:19;;;;;;;163.95;45.90;;;;;;;-139.48;100.00;61774.03;5016836;28;20512;-69
2022/04/25 04:29:04;;;;;;;197.88;48.75;;;;;;;-139.48;100.00;61774.03;4988414;28;20050;-69
2022/04/25 04:31:48;;;;;;;167.52;44.97;;;;;;;-139.48;100.00;61774.03;5001879;28;20052;-69
2022/04/25 04:34:36;;;;;;;157.30;41.70;;;;;;;-139.48;100.00;61774.03;5002090;28;20104;-70
2022/04/25 04:37:19;;;;;;;196.32;45.97;;;;;;;-139.48;100.00;61774.03;5016906;28;20119;-70
2022/04/25 04:43:07;;;;;;;129.32;41.20;;;;;;;-139.48;100.00;61774.03;5016571;28;19975;-70
2022/04/25 04:45:51;;;;;;;121.68;37.67;;;;;;;-139.48;100.00;61774.03;4988139;28;20061;-70
2022/04/25 04:48:35;;;;;;;140.10;40.97;;;;;;;-139.48;100.00;61774.03;5001868;28;20092;-70
2022/04/25 04:51:18;;;;;;;136.75;43.13;;;;;;;-139.48;100.00;61774.03;5001848;28;20064;-70
2022/04/25 04:54:02;;;;;;;;;;;;;;;-139.48;100.00;61774.03;5002317;28;20184;-69
2022/04/25 04:56:46;;;;;;;149.48;40.97;;;;;;;-139.48;100.00;61774.03;5016436;28;20335;-69
2022/04/25 04:59:30;;;;;;;136.52;41.40;;;;;;;-139.48;100.00;61774.03;5001347;28;20096;-69
2022/04/25 05:02:17;;;;;;;154.45;42.05;;;;;;;-139.48;100.00;61774.03;5016114;28;20056;-69
2022/04/25 05:05:03;;;;;;;146.48;39.35;;;;;;;-139.48;100.00;61774.03;5001856;28;20045;-70
2022/04/25 05:07:47;;;;;;;132.77;40.28;;;;;;;-139.48;100.00;61774.03;4987534;28;20548;-69
2022/04/25 05:10:30;;;;;;;131.77;39.53;;;;;;;-139.48;100.00;61774.03;5001518;28;20056;-69
2022/04/25 05:13:17;;;;;;;138.63;39.10;;;;;;;-139.48;100.00;61774.03;5016229;28;20052;-70
2022/04/25 05:16:01;;;;;;;136.07;41.70;;;;;;;-139.48;100.00;61774.03;5016007;28;20104;-69
2022/04/25 05:18:46;;;;;;;142.52;42.83;;;;;;;-139.48;100.00;61774.03;5001252;28;20552;-69
2022/04/25 05:21:29;;;;;;;133.05;41.83;;;;;;;-139.48;100.00;61774.03;5015810;28;20095;-70
2022/04/25 05:24:14;;;;;;;125.50;40.20;;;;;;;-139.48;100.00;61774.03;5015880;28;20056;-69
2022/04/25 05:26:58;;;;;;;118.18;39.33;;;;;;;-139.48;100.00;61774.03;5016699;28;20052;-70
2022/04/25 05:29:42;;;;;;;127.93;40.22;;;;;;;-139.48;100.00;61774.03;5001103;28;20509;-70
2022/04/25 05:32:26;;;;;;;134.77;38.35;;;;;;;-139.48;100.00;61774.03;5015550;28;20155;-70
2022/04/25 05:35:11;;;;;;;93.70;34.22;;;;;;;-139.48;100.00;61774.03;5001001;28;20053;-69
2022/04/25 05:37:55;;;;;;;138.45;40.28;;;;;;;-139.48;100.00;61774.03;5015572;28;20064;-69
2022/04/25 05:40:40;;;;;;;94.75;33.88;;;;;;;-139.48;100.00;61774.03;5001001;28;20085;-70
2022/04/25 05:43:24;;;;;;;101.63;32.65;;;;;;;-139.48;100.00;61774.03;5000962;28;20088;-69
2022/04/25 05:46:08;;;;;;;119.10;32.75;;;;;;;-139.48;100.00;61774.03;5015617;28;20048;-70
2022/04/25 05:51:58;;;;;;;78.15;25.70;;;;;;;-139.48;100.00;61774.03;5003123;28;20418;-69
2022/04/25 05:54:43;;;;;;;56.95;26.88;;;;;;;-139.48;100.00;61774.03;5000922;28;20052;-69
2022/04/25 05:57:27;;;;;;;67.82;27.77;;;;;;;-139.48;100.00;61774.03;4987059;28;20176;-69
2022/04/25 06:00:12;;;;;;;74.47;30.52;;;;;;;-139.48;100.00;61774.03;5000136;28;20124;-69
2022/04/25 06:02:57;;;;;;;71.13;30.00;;;;;;;-139.48;100.00;61774.03;5000396;28;20049;-69
2022/04/25 06:05:40;;;;;;;69.22;29.55;;;;;;;-139.48;100.00;61774.03;5000350;28;20095;-69
2022/04/25 06:08:24;;;;;;;51.10;28.50;;;;;;;-139.48;100.00;61774.03;5000366;28;20625;-69
2022/04/25 06:11:08;;;;;;;50.15;25.17;;;;;;;-139.48;100.00;61774.03;5000143;28;20588;-69
2022/04/25 06:13:56;;;;;;;39.35;23.00;;;;;;;-139.48;100.00;61774.03;5014274;28;20461;-69
2022/04/25 06:16:40;;;;;;;40.65;23.83;;;;;;;-139.48;100.00;61774.03;5014992;28;20176;-69
2022/04/25 06:19:23;;;;;;;62.78;28.30;;;;;;;-139.48;100.00;61774.03;4986309;28;20049;-69
2022/04/25 06:22:09;;;;;;;60.13;26.90;;;;;;;-139.48;100.00;61774.03;4999702;28;20056;-70
2022/04/25 06:24:53;;;;;;;55.47;27.67;;;;;;;-139.48;100.00;61774.03;5000006;28;20133;-69
2022/04/25 06:27:37;;;;;;;48.55;28.00;;;;;;;-139.48;100.00;61774.03;4986080;28;20080;-70
2022/04/25 06:30:23;;;;;;;47.17;26.08;;;;;;;-139.48;100.00;61774.03;4986109;28;20128;-69
2022/04/25 06:33:07;;;;;;;44.80;24.45;;;;;;;-139.48;100.00;61774.03;5014619;28;20053;-70
2022/04/25 06:35:51;;;;;;;46.60;25.42;;;;;;;-139.48;100.00;61774.03;4999880;28;20048;-70
2022/04/25 06:38:36;;;;;;;43.60;25.75;;;;;;;-139.48;100.00;61774.03;5014608;28;20061;-69
2022/04/25 06:41:21;;;;;;;37.20;22.42;;;;;;;-139.48;100.00;61774.03;5014261;28;20052;-69
2022/04/25 06:44:06;;;;;;;41.40;24.42;;;;;;;-139.48;100.00;61774.03;4999858;28;20073;-70
2022/04/25 06:46:50;;;;;;;42.08;25.05;;;;;;;-139.48;100.00;61774.03;4999915;28;20074;-70
2022/04/25 06:49:34;;;;;;;42.42;25.00;;;;;;;-139.48;100.00;61774.03;5014544;28;20509;-70
2022/04/25 06:52:17;;;;;;;45.25;28.15;;;;;;;-139.48;100.00;61774.03;4999225;28;20057;-69
2022/04/25 06:55:04;;;;;;;43.45;27.25;;;;;;;-139.48;100.00;61774.03;5014479;28;20049;-69
2022/04/25 06:57:48;;;;;;;39.15;26.20;;;;;;;-139.48;100.00;61774.03;4999830;28;20104;-69
2022/04/25 07:00:32;;;;;;;41.03;27.30;;;;;;;-139.48;100.00;61774.03;4998988;28;20049;-69
2022/04/25 07:03:17;;;;;;;39.00;27.83;;;;;;;-139.48;100.00;61774.03;5014555;28;20095;-70
2022/04/25 07:06:00;;;;;;;37.05;25.77;;;;;;;-139.48;100.00;61774.03;4999344;28;20053;-70
2022/04/25 07:08:44;;;;;;;37.75;24.88;;;;;;;-139.48;100.00;61774.03;5013958;28;20064;-70
2022/04/25 07:11:29;;;;;;;36.63;25.98;;;;;;;-139.48;100.00;61774.03;4999026;28;20125;-70
2022/04/25 07:14:15;;;;;;;37.28;27.10;;;;;;;-139.48;100.00;61774.03;4999543;28;20049;-70
2022/04/25 07:17:01;;;;;;;37.72;26.40;;;;;;;-139.48;100.00;61774.03;4999108;28;20560;-70
2022/04/25 07:19:45;;;;;;;45.15;28.90;;;;;;;-139.48;100.00;61774.03;4985651;28;20449;-70
2022/04/25 07:28:51;;;;;;;39.70;24.80;;;;;;;-139.48;100.00;61774.03;5001742;28;20509;-69
2022/04/25 07:31:35;;;;;;;39.60;26.95;;;;;;;-139.48;100.00;61774.03;4998694;28;20137;-70
2022/04/25 07:34:20;;;;;;;41.28;27.40;;;;;;;-139.48;100.00;61774.03;5013529;28;20052;-70
2022/04/25 07:37:04;;;;;;;37.00;24.45;;;;;;;-139.48;100.00;61774.03;4999132;28;20061;-70
2022/04/25 07:39:49;;;;;;;31.80;23.70;;;;;;;-139.48;100.00;61774.03;4998419;28;20560;-70
2022/04/25 07:42:33;;;;;;;33.47;24.27;;;;;;;-139.48;100.00;61774.03;4997322;23;20058;-69
2022/04/25 07:45:17;;;;;;;33.83;23.05;;;;;;;-139.48;100.00;61774.03;4994059;28;20058;-69
2022/04/25 07:48:01;;;;;;;31.38;22.33;;;;;;;-139.48;100.00;61774.03;4979330;28;20049;-70
2022/04/25 07:50:45;;;;;;;30.77;22.67;;;;;;;-139.48;100.00;61774.03;4993700;28;20115;-70
2022/04/25 07:53:30;;;;;;;34.05;24.02;;;;;;;-139.48;100.00;61774.03;4993991;28;20053;-69
2022/04/25 07:56:14;;;;;;;37.17;25.45;;;;;;;-139.48;100.00;61774.03;4993910;28;20465;-70
2022/04/25 07:59:00;;;;;;;37.35;26.65;;;;;;;-139.48;100.00;61774.03;4979211;28;20109;-70
2022/04/25 08:01:44;;;;;;;32.17;25.00;;;;;;;-139.48;100.00;61774.03;4979141;28;20418;-69
2022/04/25 08:04:29;;;;;;;35.58;25.92;;;;;;;-139.48;100.00;61774.03;4979178;28;20227;-70
2022/04/25 08:07:13;;;;;;;32.97;24.70;;;;;;;-139.48;100.00;61774.03;4979137;28;20510;-70
2022/04/25 08:09:56;;;;;;;30.15;23.38;;;;;;;-139.48;100.00;61774.03;4979153;28;20046;-70
2022/04/25 08:18:46;;;;;;;28.25;21.75;;;;;;;-139.48;100.00;61774.03;4993407;28;20049;-70
2022/04/25 08:21:30;;;;;;;27.33;21.67;;;;;;;-139.48;100.00;61774.03;4978887;28;20107;-70
2022/04/25 08:24:14;;;;;;;33.38;24.45;;;;;;;-139.48;100.00;61774.03;4978765;28;20130;-70
2022/04/25 08:26:58;;;;;;;32.10;24.17;;;;;;;-139.48;100.00;61774.03;4979212;28;20048;-70
2022/04/25 08:29:42;;;;;;;30.65;23.40;;;;;;;-139.48;100.00;61774.03;4993721;28;20097;-70
2022/04/25 08:32:26;;;;;;;33.35;23.35;;;;;;;-139.48;100.00;61774.03;4978879;28;20057;-70
2022/04/25 08:35:09;;;;;;;29.30;22.52;;;;;;;-139.48;100.00;61774.03;4978712;28;20068;-70
2022/04/25 08:37:56;;;;;;;29.95;23.23;;;;;;;-139.48;100.00;61774.03;4982700;28;20052;-69
2022/04/25 08:40:41;;;;;;;30.65;22.67;;;;;;;-139.48;100.00;61774.03;4982544;28;20053;-70
2022/04/25 08:43:25;;;;;;;32.40;22.67;;;;;;;-139.48;100.00;61774.03;4997107;28;20057;-70
2022/04/25 08:46:10;;;;;;;29.13;23.65;;;;;;;-139.48;100.00;61774.03;4982422;28;20541;-71
2022/04/25 08:48:55;;;;;;;26.05;21.70;;;;;;;-139.48;100.00;61774.03;4982587;28;20513;-70
2022/04/25 08:51:40;;;;;;;25.33;19.80;;;;;;;-139.48;100.00;61774.03;4982003;28;20049;-70
2022/04/25 08:54:29;;;;;;;25.98;21.45;;;;;;;-139.48;100.00;61774.03;4982254;28;20552;-70
2022/04/25 08:57:16;;;;;;;25.33;20.80;;;;;;;-139.48;100.00;61774.03;4982403;28;20084;-70
2022/04/25 09:00:01;;;;;;;26.90;21.25;;;;;;;-139.48;100.00;61774.03;4982369;28;20517;-70
2022/04/25 09:02:45;;;;;;;26.73;21.98;;;;;;;-139.48;100.00;61774.03;4996469;28;20097;-70
2022/04/25 09:05:29;;;;;;;29.73;22.88;;;;;;;-139.48;100.00;61774.03;4996511;28;20414;-70
2022/04/25 09:08:13;;;;;;;27.40;21.38;;;;;;;-139.48;100.00;61774.03;4981638;28;20050;-70
2022/04/25 09:12:09;;;;;;;27.10;21.88;;;;;;;-139.48;100.00;61774.03;4981543;28;20045;-70
2022/04/25 09:14:02;;;;;;;28.77;22.92;;;;;;;-139.48;100.00;61774.03;4984829;28;20100;-70
2022/04/25 09:16:47;;;;;;;33.63;24.33;;;;;;;-139.48;100.00;61774.03;4996532;28;20200;-69
2022/04/25 09:19:31;;;;;;;29.10;20.58;;;;;;;-139.48;100.00;61774.03;4981424;28;20173;-70
2022/04/25 09:22:32;;;;;;;29.58;22.65;;;;;;;-139.48;100.00;61774.03;4981561;28;20069;-70
2022/04/25 09:25:17;;;;;;;34.22;21.88;;;;;;;-139.48;100.00;61774.03;4996080;28;20045;-70
2022/04/25 09:28:13;;;;;;;28.85;22.63;;;;;;;-139.48;100.00;61774.03;4981365;28;20520;-70
2022/04/25 09:31:01;;;;;;;26.55;20.45;;;;;;;-139.48;100.00;61774.03;4981531;28;20230;-70
2022/04/25 09:33:46;;;;;;;26.42;20.85;;;;;;;-139.48;100.00;61774.03;4968288;28;20464;-70
2022/04/25 09:36:46;;;;;;;30.33;21.10;;;;;;;-139.48;100.00;61774.03;4981467;28;20132;-70
2022/04/25 09:39:30;;;;;;;26.38;20.08;;;;;;;-139.48;100.00;61774.03;4981453;28;20057;-70
2022/04/25 09:42:14;;;;;;;29.45;22.08;;;;;;;-139.48;100.00;61774.03;4995681;28;20057;-70
2022/04/25 09:45:00;;;;;;;27.25;21.05;;;;;;;-139.48;100.00;61774.03;4967693;28;20513;-70
2022/04/25 09:47:45;;;;;;;24.50;19.73;;;;;;;-139.48;100.00;61774.03;4980306;28;20513;-70
2022/04/25 09:50:29;;;;;;;25.77;19.15;;;;;;;-139.48;100.00;61774.03;4995918;28;20108;-70
2022/04/25 09:53:13;;;;;;;;;;;;;;;-139.48;100.00;61774.03;4981287;28;20414;-70
2022/04/25 09:56:09;;;;;;;17.83;13.73;;;;;;;-139.48;100.00;61774.03;4967506;28;19921;-70
2022/04/25 09:59:09;;;;;;;17.42;14.55;;;;;;;-139.48;100.00;61774.03;4980961;28;20508;-70
2022/04/25 10:02:04;;;;;;;16.35;14.00;;;;;;;-139.48;100.00;61774.03;4995654;28;20052;-70
2022/04/25 10:04:48;;;;;;;18.00;14.52;;;;;;;-139.48;100.00;61774.03;4995737;28;20501;-71
2022/04/25 10:07:32;;;;;;;19.17;13.48;;;;;;;-139.48;100.00;61774.03;4980642;28;20069;-70
2022/04/25 10:10:16;;;;;;;16.65;13.82;;;;;;;-139.48;100.00;61774.03;4980710;28;20096;-70
2022/04/25 10:13:01;;;;;;;15.70;13.95;;;;;;;-139.48;100.00;61774.03;4980795;28;20041;-70
2022/04/25 10:15:45;;;;;;;19.17;14.60;;;;;;;-139.48;100.00;61774.03;4980683;28;20049;-70
2022/04/25 10:18:32;;;;;;;14.90;13.30;;;;;;;-139.48;100.00;61774.03;4995287;28;20128;-69
2022/04/25 10:21:17;;;;;;;16.42;13.30;;;;;;;-139.48;100.00;61774.03;4980875;28;20041;-70
2022/04/25 10:24:01;;;;;;;15.65;12.45;;;;;;;-139.48;100.00;61774.03;4967043;28;20053;-69
2022/04/25 10:26:49;;;;;;;16.15;13.10;;;;;;;-139.48;100.00;61774.03;4966634;28;20053;-70
2022/04/25 10:29:34;;;;;;;17.27;13.07;;;;;;;-139.48;100.00;61774.03;4980401;28;20065;-69
2022/04/25 10:32:23;;;;;;;14.15;12.65;;;;;;;-139.48;100.00;61774.03;4980401;28;20049;-70
2022/04/25 10:35:16;;;;;;;15.23;11.68;;;;;;;-139.48;100.00;61774.03;4995106;28;20049;-70
2022/04/25 10:38:00;;;;;;;13.90;11.82;;;;;;;-139.48;100.00;61774.03;4980156;28;20092;-70
2022/04/25 10:47:03;;;;;;;9.30;8.35;;;;;;;-139.48;100.00;61774.03;4982845;28;20096;-71
2022/04/25 10:49:53;;;;;;;17.10;10.30;;;;;;;-139.48;100.00;61774.03;4994843;28;20073;-70
2022/04/25 10:52:42;;;;;;;14.50;8.52;;;;;;;-139.48;100.00;61774.03;4980102;28;20045;-71
2022/04/25 10:55:38;;;;;;;7.43;6.50;;;;;;;-139.48;100.00;61774.03;4994465;28;20068;-69
2022/04/25 10:58:22;;;;;;;8.25;7.45;;;;;;;-139.48;100.00;61774.03;4994477;28;20104;-70
2022/04/25 11:01:06;;;;;;;6.82;6.13;;;;;;;-139.48;100.00;61774.03;4979825;28;20418;-70
2022/04/25 11:04:04;;;;;;;5.63;4.70;;;;;;;-139.48;100.00;61774.03;4980058;28;20104;-70
2022/04/25 11:06:48;;;;;;;4.68;4.28;;;;;;;-139.48;100.00;61774.03;4979840;28;20096;-70
2022/04/25 11:09:39;;;;;;;6.18;5.63;;;;;;;-139.48;100.00;61774.03;4966304;28;20414;-70
2022/04/25 11:12:58;;;;;;;7.47;6.70;;;;;;;-139.48;100.00;61774.03;4994207;28;20057;-70
2022/04/25 11:15:44;;;;;;;7.07;6.47;;;;;;;-139.48;100.00;61774.03;4979398;28;20470;-70
2022/04/25 11:18:34;;;;;;;8.57;7.53;;;;;;;-139.48;100.00;61774.03;4994086;28;20057;-70
2022/04/25 11:21:29;;;;;;;9.65;8.60;;;;;;;-139.48;100.00;61774.03;4979480;28;20407;-70
2022/04/25 11:24:33;;;;;;;10.45;9.45;;;;;;;-139.48;100.00;61774.03;4979521;28;20045;-70
2022/04/25 11:27:20;;;;;;;7.07;6.47;;;;;;;-139.48;100.00;61774.03;4994096;28;20543;-70
2022/04/25 11:30:16;;;;;;;8.05;7.28;;;;;;;-139.48;100.00;61774.03;4979677;28;20501;-70
2022/04/25 11:33:08;;;;;;;6.25;5.68;;;;;;;-139.48;100.00;61774.03;4979764;28;20056;-70
2022/04/25 11:35:59;;;;;;;7.30;6.50;;;;;;;-139.48;100.00;61774.03;4979192;28;20053;-70
2022/04/25 11:41:47;;;;;;;;;;;;;;;-139.48;100.00;61774.03;4981983;28;20129;-69
2022/04/25 11:44:31;;;;;;;5.90;5.40;;;;;;;-139.48;100.00;61774.03;4979432;28;19964;-69
2022/04/25 11:47:18;;;;;;;7.03;6.35;;;;;;;-139.48;100.00;61774.03;4994093;28;20044;-70
2022/04/25 11:50:04;;;;;;;6.43;5.82;;;;;;;-139.48;100.00;61774.03;4979299;28;20157;-69
2022/04/25 11:52:50;;;;;;;7.60;6.80;;;;;;;-139.48;100.00;61774.03;4993638;28;20050;-70
2022/04/25 11:55:35;;;;;;;8.00;6.82;;;;;;;-139.48;100.00;61774.03;4979027;28;20049;-70
2022/04/25 11:58:28;;;;;;;6.60;5.88;;;;;;;-139.48;100.00;61774.03;4979236;28;20093;-70
2022/04/25 12:01:13;;;;;;;7.10;4.75;;;;;;;-139.48;100.00;61774.03;4978901;28;20092;-71
2022/04/25 12:04:16;;;;;;;5.30;4.80;;;;;;;-139.48;100.00;61774.03;4979473;28;20053;-69
2022/04/25 12:07:02;;;;;;;7.57;6.95;;;;;;;-139.48;100.00;61774.03;4993598;28;20418;-70
2022/04/25 12:15:53;;;;;;;5.05;4.65;;;;;;;-139.48;100.00;61774.03;4997714;28;20045;-70
2022/04/25 12:18:48;;;;;;;6.10;5.57;;;;;;;-139.48;100.00;61774.03;4982948;28;20042;-70
2022/04/25 12:21:34;;;;;;;9.52;4.50;;;;;;;-139.48;100.00;61774.03;4997185;28;20113;-70
2022/04/25 12:24:18;;;;;;;5.78;4.82;;;;;;;-139.48;100.00;61774.03;4982808;28;20105;-70
2022/04/25 12:27:10;;;;;;;6.72;6.13;;;;;;;-139.48;100.00;61774.03;4982552;28;20101;-71
2022/04/25 12:30:05;;;;;;;6.00;5.43;;;;;;;-139.48;100.00;61774.03;4968764;28;20133;-69
2022/04/25 12:32:49;;;;;;;6.15;5.65;;;;;;;-139.48;100.00;61774.03;4997082;28;20103;-70
2022/04/25 12:35:34;;;;;;;6.13;5.63;;;;;;;-139.48;100.00;61774.03;4997203;28;20045;-70
2022/04/25 12:38:53;;;;;;;5.70;5.20;;;;;;;-139.48;100.00;61774.03;4997183;28;20422;-70
2022/04/25 12:41:40;;;;;;;7.00;6.40;;;;;;;-139.48;100.00;61774.03;4997047;28;20101;-70
2022/04/25 12:44:28;;;;;;;7.63;6.90;;;;;;;-139.48;100.00;61774.03;4996906;28;20057;-70
2022/04/25 12:47:15;;;;;;;5.90;5.40;;;;;;;-139.48;100.00;61774.03;4982431;28;20160;-70
2022/04/25 12:50:01;;;;;;;9.00;7.32;;;;;;;-139.48;100.00;61774.03;4997000;28;20101;-69
2022/04/25 12:52:49;;;;;;;9.15;8.32;;;;;;;-139.48;100.00;61774.03;4996725;28;20513;-69
2022/04/25 12:55:47;;;;;;;18.00;7.90;;;;;;;-139.48;100.00;61774.03;4982485;28;20050;-70
2022/04/25 12:58:34;;;;;;;10.80;8.07;;;;;;;-139.48;100.00;61774.03;4996978;28;20244;-70